sensor_id;sensor_type;location;lat;lon;timestamp;temperature;humidity
44731;DHT22;30458;47.448;19.032;2022-09-21T00:05:19;12.10;99.90
44731;DHT22;30458;47.448;19.032;2022-09-21T00:15:20;12.00;99.90
44731;DHT22;30458;47.448;19.032;2022-09-21T00:25:23;11.90;99.90
44731;DHT22;30458;47.448;19.032;2022-09-21T00:35:26;12.00;99.90
44731;DHT22;30458;47.448;19.032;2022-09-21T00:45:31;12.00;99.90
44731;DHT22;30458;47.448;19.032;2022-09-21T00:55:46;12.00;99.90
44731;DHT22;30458;47.448;19.032;2022-09-21T01:05:51;11.80;99.90
44731;DHT22;30458;47.448;19.032;2022-09-21T01:36:11;11.60;99.90
44731;DHT22;30458;47.448;19.032;2022-09-21T01:46:17;11.60;99.90
44731;DHT22;30458;47.448;19.032;2022-09-21T01:56:29;11.30;99.90
44731;DHT22;30458;47.448;19.032;2022-09-21T02:06:42;10.90;99.90
44731;DHT22;30458;47.448;19.032;2022-09-21T02:17:42;10.90;99.90
44731;DHT22;30458;47.448;19.032;2022-09-21T02:27:57;11.00;99.90
44731;DHT22;30458;47.448;19.032;2022-09-21T02:38:32;11.10;99.90
44731;DHT22;30458;47.448;19.032;2022-09-21T02:48:38;11.20;99.90
44731;DHT22;30458;47.448;19.032;2022-09-21T02:58:47;11.00;99.90
44731;DHT22;30458;47.448;19.032;2022-09-21T03:08:49;11.20;99.90
44731;DHT22;30458;47.448;19.032;2022-09-21T03:18:52;11.20;99.90
44731;DHT22;30458;47.448;19.032;2022-09-21T03:28:53;11.00;99.90
44731;DHT22;30458;47.448;19.032;2022-09-21T03:38:54;10.90;99.90
44731;DHT22;30458;47.448;19.032;2022-09-21T03:48:57;11.10;99.90
44731;DHT22;30458;47.448;19.032;2022-09-21T03:59:00;11.20;99.90
44731;DHT22;30458;47.448;19.032;2022-09-21T04:09:01;11.00;99.90
44731;DHT22;30458;47.448;19.032;2022-09-21T04:19:06;10.90;99.90
44731;DHT22;30458;47.448;19.032;2022-09-21T04:29:08;10.60;99.90
44731;DHT22;30458;47.448;19.032;2022-09-21T04:39:10;10.50;99.90
44731;DHT22;30458;47.448;19.032;2022-09-21T04:49:11;10.70;99.90
44731;DHT22;30458;47.448;19.032;2022-09-21T04:59:15;10.60;99.90
44731;DHT22;30458;47.448;19.032;2022-09-21T05:09:17;11.00;99.90
44731;DHT22;30458;47.448;19.032;2022-09-21T05:19:39;11.30;99.90
44731;DHT22;30458;47.448;19.032;2022-09-21T05:29:43;11.40;99.90
44731;DHT22;30458;47.448;19.032;2022-09-21T05:39:44;11.70;99.90
44731;DHT22;30458;47.448;19.032;2022-09-21T06:00:20;13.00;99.90
44731;DHT22;30458;47.448;19.032;2022-09-21T06:10:22;13.20;99.90
44731;DHT22;30458;47.448;19.032;2022-09-21T06:20:24;13.20;99.90
44731;DHT22;30458;47.448;19.032;2022-09-21T06:30:25;14.20;99.90
44731;DHT22;30458;47.448;19.032;2022-09-21T06:40:30;15.10;99.10
44731;DHT22;30458;47.448;19.032;2022-09-21T06:50:33;18.10;95.50
44731;DHT22;30458;47.448;19.032;2022-09-21T07:00:36;19.60;92.40
44731;DHT22;30458;47.448;19.032;2022-09-21T07:10:36;20.20;91.50
44731;DHT22;30458;47.448;19.032;2022-09-21T07:20:42;22.60;87.50
44731;DHT22;30458;47.448;19.032;2022-09-21T07:30:43;24.20;82.30
44731;DHT22;30458;47.448;19.032;2022-09-21T07:40:44;25.60;77.50
44731;DHT22;30458;47.448;19.032;2022-09-21T07:50:48;25.20;73.00
44731;DHT22;30458;47.448;19.032;2022-09-21T08:00:52;26.20;74.40
44731;DHT22;30458;47.448;19.032;2022-09-21T08:10:52;25.90;72.10
44731;DHT22;30458;47.448;19.032;2022-09-21T08:20:58;25.50;70.70
44731;DHT22;30458;47.448;19.032;2022-09-21T08:31:04;24.80;73.00
44731;DHT22;30458;47.448;19.032;2022-09-21T08:41:17;23.90;73.20
44731;DHT22;30458;47.448;19.032;2022-09-21T08:51:24;24.00;73.70
44731;DHT22;30458;47.448;19.032;2022-09-21T09:12:39;22.30;76.20
44731;DHT22;30458;47.448;19.032;2022-09-21T09:23:31;21.50;77.90
44731;DHT22;30458;47.448;19.032;2022-09-21T09:33:26;20.50;80.70
44731;DHT22;30458;47.448;19.032;2022-09-21T09:54:23;19.80;82.30
44731;DHT22;30458;47.448;19.032;2022-09-21T10:04:24;19.20;83.80
44731;DHT22;30458;47.448;19.032;2022-09-21T10:14:31;18.90;85.80
44731;DHT22;30458;47.448;19.032;2022-09-21T10:24:37;18.60;84.10
44731;DHT22;30458;47.448;19.032;2022-09-21T10:34:40;18.40;87.50
44731;DHT22;30458;47.448;19.032;2022-09-21T10:45:03;18.10;85.30
44731;DHT22;30458;47.448;19.032;2022-09-21T10:55:13;18.10;85.20
44731;DHT22;30458;47.448;19.032;2022-09-21T11:05:26;17.90;87.00
44731;DHT22;30458;47.448;19.032;2022-09-21T11:15:43;17.90;88.90
44731;DHT22;30458;47.448;19.032;2022-09-21T11:25:51;18.20;88.20
44731;DHT22;30458;47.448;19.032;2022-09-21T12:28:26;18.20;81.80
44731;DHT22;30458;47.448;19.032;2022-09-21T12:38:35;18.20;85.60
44731;DHT22;30458;47.448;19.032;2022-09-21T12:48:39;18.10;81.20
44731;DHT22;30458;47.448;19.032;2022-09-21T13:08:47;17.80;84.80
44731;DHT22;30458;47.448;19.032;2022-09-21T13:19:15;17.60;84.40
44731;DHT22;30458;47.448;19.032;2022-09-21T13:39:18;17.90;86.50
44731;DHT22;30458;47.448;19.032;2022-09-21T13:49:25;18.00;84.00
44731;DHT22;30458;47.448;19.032;2022-09-21T13:59:30;18.20;83.90
44731;DHT22;30458;47.448;19.032;2022-09-21T14:09:49;18.30;84.80
44731;DHT22;30458;47.448;19.032;2022-09-21T14:40:03;18.30;83.50
44731;DHT22;30458;47.448;19.032;2022-09-21T15:21:03;17.90;83.40
44731;DHT22;30458;47.448;19.032;2022-09-21T15:31:06;17.90;83.80
44731;DHT22;30458;47.448;19.032;2022-09-21T15:52:04;17.40;84.10
44731;DHT22;30458;47.448;19.032;2022-09-21T16:02:20;17.10;83.60
44731;DHT22;30458;47.448;19.032;2022-09-21T16:12:32;16.90;84.80
44731;DHT22;30458;47.448;19.032;2022-09-21T16:22:42;16.70;85.50
44731;DHT22;30458;47.448;19.032;2022-09-21T16:32:43;16.50;86.90
44731;DHT22;30458;47.448;19.032;2022-09-21T16:42:47;16.30;88.60
44731;DHT22;30458;47.448;19.032;2022-09-21T16:52:48;16.10;90.10
44731;DHT22;30458;47.448;19.032;2022-09-21T17:02:50;15.90;90.60
44731;DHT22;30458;47.448;19.032;2022-09-21T17:12:51;15.70;90.80
44731;DHT22;30458;47.448;19.032;2022-09-21T17:22:55;15.50;91.60
44731;DHT22;30458;47.448;19.032;2022-09-21T17:32:56;15.40;91.70
44731;DHT22;30458;47.448;19.032;2022-09-21T17:53:39;15.30;91.30
44731;DHT22;30458;47.448;19.032;2022-09-21T18:03:43;15.30;91.10
44731;DHT22;30458;47.448;19.032;2022-09-21T18:14:41;15.10;91.60
44731;DHT22;30458;47.448;19.032;2022-09-21T18:45:04;15.10;92.50
44731;DHT22;30458;47.448;19.032;2022-09-21T18:55:36;15.10;92.50
44731;DHT22;30458;47.448;19.032;2022-09-21T19:05:37;15.10;92.80
44731;DHT22;30458;47.448;19.032;2022-09-21T19:36:05;14.80;93.60
44731;DHT22;30458;47.448;19.032;2022-09-21T19:56:32;14.70;94.10
44731;DHT22;30458;47.448;19.032;2022-09-21T20:06:58;14.60;94.40
44731;DHT22;30458;47.448;19.032;2022-09-21T20:17:03;14.50;94.30
44731;DHT22;30458;47.448;19.032;2022-09-21T20:37:26;14.30;94.70
44731;DHT22;30458;47.448;19.032;2022-09-21T20:47:29;14.30;94.70
44731;DHT22;30458;47.448;19.032;2022-09-21T20:57:30;14.20;95.00
44731;DHT22;30458;47.448;19.032;2022-09-21T21:07:31;14.00;95.00
44731;DHT22;30458;47.448;19.032;2022-09-21T21:17:34;13.80;95.60
44731;DHT22;30458;47.448;19.032;2022-09-21T21:27:35;13.70;95.50
44731;DHT22;30458;47.448;19.032;2022-09-21T21:37:36;13.70;95.60
44731;DHT22;30458;47.448;19.032;2022-09-21T21:47:39;13.60;95.70
44731;DHT22;30458;47.448;19.032;2022-09-21T21:57:39;13.50;95.90
44731;DHT22;30458;47.448;19.032;2022-09-21T22:07:46;13.40;95.90
44731;DHT22;30458;47.448;19.032;2022-09-21T22:17:49;13.40;95.80
44731;DHT22;30458;47.448;19.032;2022-09-21T22:27:50;13.20;96.20
44731;DHT22;30458;47.448;19.032;2022-09-21T22:37:50;13.10;96.20
44731;DHT22;30458;47.448;19.032;2022-09-21T22:47:54;13.10;96.00
44731;DHT22;30458;47.448;19.032;2022-09-21T22:57:55;13.10;96.30
44731;DHT22;30458;47.448;19.032;2022-09-21T23:07:58;13.00;96.30
44731;DHT22;30458;47.448;19.032;2022-09-21T23:17:59;12.80;96.50
44731;DHT22;30458;47.448;19.032;2022-09-21T23:28:02;12.70;96.40
44731;DHT22;30458;47.448;19.032;2022-09-21T23:38:03;12.70;96.10
44731;DHT22;30458;47.448;19.032;2022-09-21T23:48:06;12.80;95.80
44731;DHT22;30458;47.448;19.032;2022-09-21T23:58:07;12.90;96.20
